Time;durP1;ratioP1;P1;durP2;ratioP2;P2;SDS_P1;SDS_P2;PMS_P1;PMS_P2;Temp;Humidity;BMP_temperature;BMP_pressure;BME280_temperature;BME280_humidity;BME280_pressure;Samples;Min_cycle;Max_cycle;Signal;HPM_P1;HPM_P2
2022/03/15 00:01:24;;;;;;;3.63;2.60;;;7.20;69.50;;;;;;5044028;28;20032;-77
2022/03/15 00:03:50;;;;;;;6.20;3.00;;;7.20;69.70;;;;;;5052731;28;20446;-78
2022/03/15 00:06:16;;;;;;;2.80;2.15;;;7.10;69.90;;;;;;5054487;28;20048;-77
2022/03/15 00:08:44;;;;;;;5.28;2.55;;;7.10;70.30;;;;;;5056059;28;20021;-79
2022/03/15 00:11:10;;;;;;;5.28;2.92;;;7.10;70.50;;;;;;5056018;28;20025;-78
2022/03/15 00:13:38;;;;;;;4.40;2.67;;;7.10;70.80;;;;;;5054257;28;20044;-79
2022/03/15 00:16:05;;;;;;;4.97;3.05;;;7.10;70.90;;;;;;5053792;28;20027;-78
2022/03/15 00:18:32;;;;;;;5.97;2.85;;;7.10;71.20;;;;;;5053861;28;20120;-79
2022/03/15 00:20:59;;;;;;;5.13;3.00;;;7.10;71.30;;;;;;5053628;28;20017;-79
2022/03/15 00:23:25;;;;;;;5.00;2.97;;;7.10;71.50;;;;;;5054027;28;20044;-78
2022/03/15 00:25:52;;;;;;;4.40;2.63;;;7.10;71.60;;;;;;5054237;28;20033;-78
2022/03/15 00:28:19;;;;;;;4.18;2.63;;;7.10;71.80;;;;;;5053617;28;20450;-77
2022/03/15 00:30:45;;;;;;;3.28;2.55;;;7.10;72.00;;;;;;5054560;28;20029;-77
2022/03/15 00:33:11;;;;;;;3.58;2.55;;;7.00;72.20;;;;;;5063439;28;20032;-75
2022/03/15 00:35:37;;;;;;;4.43;2.60;;;7.10;72.40;;;;;;5063983;28;20021;-77
2022/03/15 00:38:02;;;;;;;5.18;2.63;;;7.10;72.50;;;;;;5063472;28;20021;-78
2022/03/15 00:40:28;;;;;;;2.45;2.25;;;7.10;72.60;;;;;;5061427;28;20021;-76
2022/03/15 00:42:54;;;;;;;3.92;2.67;;;7.10;72.80;;;;;;5063598;28;20076;-77
2022/03/15 00:45:25;;;;;;;3.75;2.42;;;7.10;72.90;;;;;;5056096;28;20103;-77
2022/03/15 00:47:55;;;;;;;2.88;2.28;;;7.10;73.10;;;;;;5053480;28;20028;-77
2022/03/15 00:50:26;;;;;;;5.00;2.92;;;7.10;73.20;;;;;;5053152;28;20036;-78
2022/03/15 00:52:53;;;;;;;3.72;2.90;;;7.10;73.40;;;;;;5053132;28;20036;-78
2022/03/15 00:55:19;;;;;;;4.03;3.13;;;7.10;73.70;;;;;;5052853;28;20108;-77
2022/03/15 00:57:45;;;;;;;6.78;4.32;;;7.10;74.00;;;;;;5052849;28;20226;-80
2022/03/15 01:00:12;;;;;;;6.53;3.90;;;7.10;74.20;;;;;;5053089;28;20051;-78
2022/03/15 01:02:38;;;;;;;8.82;4.25;;;7.10;74.40;;;;;;5044845;28;20074;-78
2022/03/15 01:05:06;;;;;;;6.63;4.50;;;7.10;74.70;;;;;;5053271;28;20021;-78
2022/03/15 01:07:31;;;;;;;7.20;4.32;;;7.00;75.00;;;;;;5050705;28;20029;-78
2022/03/15 01:09:57;;;;;;;6.95;3.90;;;6.90;75.20;;;;;;5052899;28;20025;-79
2022/03/15 01:12:23;;;;;;;5.78;3.67;;;6.90;75.60;;;;;;5052865;28;20025;-79
2022/03/15 01:14:49;;;;;;;5.15;3.50;;;6.90;75.80;;;;;;5052834;28;20062;-78
2022/03/15 01:17:15;;;;;;;7.03;4.57;;;6.90;76.00;;;;;;5052094;28;20505;-78
2022/03/15 01:19:41;;;;;;;5.03;3.70;;;6.90;76.70;;;;;;5052302;28;20503;-77
2022/03/15 01:22:07;;;;;;;4.70;3.75;;;6.90;76.70;;;;;;5052548;28;20335;-79
2022/03/15 01:24:32;;;;;;;3.95;2.95;;;6.90;76.00;;;;;;5052207;28;20052;-79
2022/03/15 01:26:58;;;;;;;5.55;3.50;;;7.00;76.10;;;;;;5052003;28;20036;-78
2022/03/15 01:29:26;;;;;;;4.45;3.08;;;7.00;76.10;;;;;;5050564;28;20025;-78
2022/03/15 01:31:53;;;;;;;4.70;3.45;;;6.90;76.20;;;;;;5052336;28;20368;-78
2022/03/15 01:34:19;;;;;;;6.75;3.67;;;6.90;76.50;;;;;;5055834;28;20389;-77
2022/03/15 01:36:45;;;;;;;5.78;3.80;;;6.90;76.80;;;;;;5074557;28;20025;-77
2022/03/15 01:39:11;;;;;;;5.60;3.97;;;6.90;77.10;;;;;;5073999;28;20021;-78
2022/03/15 01:41:38;;;;;;;4.50;3.63;;;6.90;77.30;;;;;;5074597;28;20012;-77
2022/03/15 01:44:13;;;;;;;4.93;3.35;;;6.80;77.50;;;;;;5073831;28;20048;-79
2022/03/15 01:46:39;;;;;;;6.85;3.92;;;6.90;77.70;;;;;;5073744;28;20032;-79
2022/03/15 01:49:04;;;;;;;5.00;3.33;;;6.80;77.70;;;;;;5066542;28;20025;-77
2022/03/15 01:51:30;;;;;;;5.30;3.70;;;6.80;77.80;;;;;;5054678;28;20100;-79
2022/03/15 01:53:56;;;;;;;4.65;3.40;;;6.80;77.90;;;;;;5053954;28;20053;-78
2022/03/15 01:56:23;;;;;;;4.45;3.20;;;6.80;77.80;;;;;;5054074;28;20057;-76
2022/03/15 01:58:48;;;;;;;4.78;3.17;;;6.80;77.70;;;;;;5053229;28;20090;-80
2022/03/15 02:01:14;;;;;;;5.47;3.90;;;6.80;77.80;;;;;;5053361;28;20021;-80
2022/03/15 02:03:40;;;;;;;4.97;3.08;;;6.80;77.90;;;;;;5053475;28;20040;-78
2022/03/15 02:06:06;;;;;;;4.88;3.10;;;6.80;78.10;;;;;;5054098;28;20489;-78
2022/03/15 02:08:33;;;;;;;5.93;3.33;;;6.80;78.30;;;;;;5053879;28;20021;-78
2022/03/15 02:10:59;;;;;;;6.95;4.90;;;6.80;78.20;;;;;;5052470;28;20062;-78
2022/03/15 02:13:24;;;;;;;9.25;5.10;;;6.80;78.30;;;;;;5053909;28;20040;-78
2022/03/15 02:15:50;;;;;;;10.50;4.95;;;6.80;78.60;;;;;;5054513;28;20483;-78
2022/03/15 02:18:18;;;;;;;7.70;5.15;;;6.70;78.60;;;;;;5053567;28;20035;-78
2022/03/15 02:20:44;;;;;;;7.80;4.65;;;6.70;78.60;;;;;;5054084;28;20106;-79
2022/03/15 02:23:12;;;;;;;7.63;4.40;;;6.60;78.80;;;;;;5052424;28;20060;-77
2022/03/15 02:25:38;;;;;;;6.72;4.15;;;6.60;78.80;;;;;;5053448;28;20553;-78
2022/03/15 02:28:04;;;;;;;5.43;4.07;;;6.60;79.50;;;;;;5052688;28;20056;-76
2022/03/15 02:30:31;;;;;;;6.07;4.47;;;6.60;78.90;;;;;;5054215;28;20474;-76
2022/03/15 02:32:57;;;;;;;6.20;4.13;;;6.60;78.90;;;;;;5054159;28;20032;-75
2022/03/15 02:35:23;;;;;;;7.28;4.55;;;6.50;79.10;;;;;;5054622;28;20021;-77
2022/03/15 02:37:51;;;;;;;6.00;4.18;;;6.50;79.20;;;;;;5055680;28;20090;-77
2022/03/15 02:40:17;;;;;;;6.40;4.13;;;6.50;79.50;;;;;;5057907;28;20021;-76
2022/03/15 02:42:43;;;;;;;7.28;4.05;;;6.50;79.60;;;;;;5059781;28;20059;-76
2022/03/15 02:45:13;;;;;;;5.53;3.80;;;6.50;79.60;;;;;;5058992;28;20112;-77
2022/03/15 02:47:40;;;;;;;5.43;3.75;;;6.50;79.60;;;;;;5065126;28;20104;-80
2022/03/15 02:50:06;;;;;;;5.45;4.03;;;6.40;79.60;;;;;;5072764;28;20036;-79
2022/03/15 02:52:32;;;;;;;7.10;3.90;;;6.50;79.70;;;;;;5071856;28;20029;-78
2022/03/15 02:55:05;;;;;;;4.53;3.65;;;6.50;79.60;;;;;;5071496;28;20021;-79
2022/03/15 02:57:31;;;;;;;7.40;3.90;;;6.50;79.50;;;;;;5072585;28;20036;-76
2022/03/15 02:59:57;;;;;;;5.82;3.60;;;6.60;79.40;;;;;;5071861;28;20021;-78
2022/03/15 03:02:22;;;;;;;5.35;3.42;;;6.50;79.20;;;;;;5073328;28;20056;-79
2022/03/15 03:04:51;;;;;;;4.60;3.03;;;6.50;79.20;;;;;;5072491;28;20021;-78
2022/03/15 03:07:19;;;;;;;4.90;3.28;;;6.50;79.20;;;;;;5073413;28;20016;-79
2022/03/15 03:09:46;;;;;;;8.93;4.13;;;6.50;79.10;;;;;;5072390;28;20021;-79
2022/03/15 03:12:16;;;;;;;7.07;4.50;;;6.50;79.10;;;;;;5073750;28;20025;-77
2022/03/15 03:14:47;;;;;;;4.93;3.70;;;6.40;79.20;;;;;;5075650;28;20086;-78
2022/03/15 03:17:13;;;;;;;6.15;3.55;;;6.40;79.50;;;;;;5076952;28;20069;-79
2022/03/15 03:19:39;;;;;;;7.43;4.10;;;6.30;79.80;;;;;;5077374;28;20032;-79
2022/03/15 03:22:05;;;;;;;5.07;3.55;;;6.30;80.10;;;;;;5077644;28;20048;-79
2022/03/15 03:24:31;;;;;;;7.07;4.05;;;6.30;80.20;;;;;;5076511;28;20029;-78
2022/03/15 03:26:58;;;;;;;4.88;3.63;;;6.30;80.40;;;;;;5077265;28;20028;-79
2022/03/15 03:29:26;;;;;;;4.18;3.35;;;6.30;80.50;;;;;;5075775;28;20013;-81
2022/03/15 03:31:52;;;;;;;4.45;3.22;;;6.30;80.70;;;;;;5077129;28;20025;-79
2022/03/15 03:34:17;;;;;;;5.07;3.10;;;6.30;80.70;;;;;;5076906;28;20044;-78
2022/03/15 03:36:43;;;;;;;5.35;4.05;;;6.30;80.70;;;;;;5076998;28;20032;-76
2022/03/15 03:39:09;;;;;;;6.28;3.50;;;6.30;80.50;;;;;;5077043;28;20025;-77
2022/03/15 03:41:34;;;;;;;4.57;3.58;;;6.30;80.60;;;;;;5076672;28;20029;-77
2022/03/15 03:44:00;;;;;;;6.50;4.07;;;6.30;80.70;;;;;;5075386;28;20017;-78
2022/03/15 03:46:27;;;;;;;5.07;3.90;;;6.30;80.90;;;;;;5076955;28;20045;-78
2022/03/15 03:48:54;;;;;;;5.22;3.80;;;6.20;81.00;;;;;;5077262;28;20029;-79
2022/03/15 03:51:20;;;;;;;4.82;3.72;;;6.20;81.20;;;;;;5075845;28;20033;-78
2022/03/15 03:53:46;;;;;;;4.07;3.25;;;6.20;81.40;;;;;;5077098;28;20016;-78
2022/03/15 03:56:12;;;;;;;4.60;3.05;;;6.20;81.50;;;;;;5076001;28;20107;-79
2022/03/15 03:58:37;;;;;;;4.90;3.33;;;6.20;81.60;;;;;;5077082;28;20069;-80
2022/03/15 04:01:04;;;;;;;5.95;3.70;;;6.20;81.70;;;;;;5077006;28;20033;-79
2022/03/15 04:03:31;;;;;;;3.83;3.00;;;6.20;81.70;;;;;;5073210;28;20044;-77
2022/03/15 04:05:58;;;;;;;4.85;3.63;;;6.20;81.80;;;;;;5070503;28;20025;-77
2022/03/15 04:08:24;;;;;;;4.03;3.22;;;6.20;81.80;;;;;;5069854;28;20059;-78
2022/03/15 04:10:50;;;;;;;4.95;3.30;;;6.20;81.80;;;;;;5070861;28;20506;-78
2022/03/15 04:13:18;;;;;;;4.53;3.38;;;6.20;81.80;;;;;;5069101;28;20106;-78
2022/03/15 04:15:48;;;;;;;4.18;3.30;;;6.20;81.90;;;;;;5068442;28;20028;-78
2022/03/15 04:18:15;;;;;;;3.88;2.95;;;6.20;82.00;;;;;;5068273;28;20093;-77
2022/03/15 04:20:41;;;;;;;5.45;3.28;;;6.20;82.10;;;;;;5069258;28;20025;-76
2022/03/15 04:23:08;;;;;;;5.43;3.80;;;6.20;82.00;;;;;;5069110;28;20115;-77
2022/03/15 04:25:34;;;;;;;5.90;4.10;;;6.20;81.90;;;;;;5069266;28;20064;-79
2022/03/15 04:28:00;;;;;;;7.75;3.95;;;6.20;82.00;;;;;;5069893;28;20044;-77
2022/03/15 04:30:30;;;;;;;5.90;3.58;;;6.10;82.00;;;;;;5058940;28;20032;-78
2022/03/15 04:32:58;;;;;;;7.72;4.00;;;6.20;82.20;;;;;;5054926;28;20362;-77
2022/03/15 04:35:24;;;;;;;5.18;3.50;;;6.10;82.30;;;;;;5052704;28;20021;-76
2022/03/15 04:37:52;;;;;;;5.95;3.13;;;6.10;82.40;;;;;;5055049;28;20035;-78
2022/03/15 04:40:18;;;;;;;5.15;3.83;;;6.10;82.50;;;;;;5053111;28;20116;-78
2022/03/15 04:42:45;;;;;;;6.72;3.80;;;6.10;82.50;;;;;;5054939;28;20164;-77
2022/03/15 04:45:12;;;;;;;5.50;3.83;;;6.10;82.60;;;;;;5055271;28;20335;-77
2022/03/15 04:47:40;;;;;;;5.88;3.75;;;6.10;82.60;;;;;;5054518;28;20064;-79
2022/03/15 04:50:07;;;;;;;4.75;3.42;;;6.10;82.80;;;;;;5055231;28;20032;-78
2022/03/15 04:52:34;;;;;;;6.88;4.20;;;6.10;83.00;;;;;;5056201;28;20039;-78
2022/03/15 04:55:01;;;;;;;6.20;3.63;;;6.10;83.10;;;;;;5059020;28;20369;-77
2022/03/15 04:57:27;;;;;;;5.82;3.95;;;6.10;83.20;;;;;;5056601;28;20032;-77
2022/03/15 04:59:53;;;;;;;6.32;3.88;;;6.10;83.20;;;;;;5057699;28;20029;-77
2022/03/15 05:02:19;;;;;;;4.63;3.70;;;6.10;83.30;;;;;;5056500;28;20025;-80
2022/03/15 05:04:44;;;;;;;4.80;3.70;;;6.10;83.40;;;;;;5057586;28;20124;-80
2022/03/15 05:07:10;;;;;;;4.53;3.47;;;6.20;83.40;;;;;;5061820;22;20034;-81
2022/03/15 05:11:05;;;;;;;4.35;2.72;;;6.20;83.30;;;;;;5040768;28;20041;-81
2022/03/15 05:12:22;;;;;;;4.88;3.47;;;6.30;83.20;;;;;;5052764;28;20085;-78
2022/03/15 05:14:47;;;;;;;9.80;4.00;;;6.30;83.10;;;;;;5051294;28;20033;-79
2022/03/15 05:17:13;;;;;;;8.18;4.45;;;6.20;83.00;;;;;;5048707;28;20021;-79
2022/03/15 05:19:39;;;;;;;7.03;4.80;;;6.20;83.10;;;;;;5045783;28;20381;-81
2022/03/15 05:22:04;;;;;;;8.35;5.65;;;6.10;83.30;;;;;;5032811;28;20025;-81
2022/03/15 05:24:30;;;;;;;6.10;4.50;;;6.10;83.60;;;;;;5042015;28;20052;-81
2022/03/15 05:26:57;;;;;;;6.35;4.15;;;6.10;84.00;;;;;;5044656;28;20036;-81
2022/03/15 05:29:24;;;;;;;6.20;4.25;;;6.10;84.20;;;;;;5043894;28;20021;-79
2022/03/15 05:31:50;;;;;;;6.35;4.57;;;6.10;84.30;;;;;;5041765;28;20036;-80
2022/03/15 05:34:17;;;;;;;4.95;4.03;;;6.00;84.40;;;;;;5037968;28;20033;-80
2022/03/15 05:36:44;;;;;;;7.63;4.72;;;6.00;84.80;;;;;;5044543;28;20036;-80
2022/03/15 05:39:10;;;;;;;7.65;4.60;;;6.00;85.20;;;;;;5041804;28;20021;-80
2022/03/15 05:41:36;;;;;;;7.38;4.95;;;5.90;85.40;;;;;;5039729;28;20434;-79
2022/03/15 05:44:01;;;;;;;9.98;5.82;;;5.80;85.70;;;;;;5039562;28;20034;-80
2022/03/15 05:46:28;;;;;;;11.32;6.03;;;5.80;86.20;;;;;;5043757;28;20069;-76
2022/03/15 05:48:54;;;;;;;9.25;4.75;;;5.80;86.50;;;;;;5056137;28;20053;-78
2022/03/15 05:51:20;;;;;;;7.03;4.53;;;5.80;86.60;;;;;;5040571;28;20414;-80
2022/03/15 05:53:46;;;;;;;7.35;4.38;;;5.80;86.90;;;;;;5035810;28;20029;-80
2022/03/15 05:56:11;;;;;;;6.32;4.45;;;5.90;86.80;;;;;;5040613;28;20045;-78
2022/03/15 05:58:37;;;;;;;8.27;4.75;;;6.00;86.70;;;;;;5037304;28;20021;-79
2022/03/15 06:01:03;;;;;;;6.93;4.72;;;6.10;86.10;;;;;;5034601;28;20021;-77
2022/03/15 06:03:29;;;;;;;7.75;5.10;;;6.10;85.80;;;;;;5035345;28;20040;-77
2022/03/15 06:05:54;;;;;;;9.10;6.00;;;6.10;85.60;;;;;;5036416;28;20033;-79
2022/03/15 06:08:20;;;;;;;8.75;5.00;;;6.10;85.70;;;;;;5035285;28;20120;-79
2022/03/15 06:10:47;;;;;;;5.85;4.45;;;6.20;85.80;;;;;;5037989;28;20049;-79
2022/03/15 06:13:12;;;;;;;6.90;4.47;;;6.30;85.70;;;;;;5035069;28;20026;-77
2022/03/15 06:15:38;;;;;;;8.73;5.63;;;6.40;85.30;;;;;;5050149;28;20025;-79
2022/03/15 06:18:05;;;;;;;7.30;5.00;;;6.50;84.60;;;;;;5036117;28;20044;-78
2022/03/15 06:20:31;;;;;;;9.23;4.82;;;6.50;84.10;;;;;;5036706;28;20025;-79
2022/03/15 06:22:59;;;;;;;8.25;5.03;;;6.60;83.90;;;;;;5038082;28;20022;-77
2022/03/15 06:25:25;;;;;;;10.10;5.65;;;6.60;83.30;;;;;;5039389;28;20026;-78
2022/03/15 06:27:51;;;;;;;8.60;5.45;;;6.60;83.10;;;;;;5055333;28;20021;-79
2022/03/15 06:30:19;;;;;;;9.43;5.30;;;6.60;83.20;;;;;;5036564;28;20028;-78
2022/03/15 06:32:45;;;;;;;8.77;4.97;;;6.60;83.30;;;;;;5029297;28;20032;-78
2022/03/15 06:35:13;;;;;;;9.75;5.28;;;6.60;83.30;;;;;;5037708;28;20371;-78
2022/03/15 06:37:44;;;;;;;8.02;5.35;;;6.70;83.20;;;;;;5036021;28;20083;-79
2022/03/15 06:40:11;;;;;;;15.65;6.25;;;6.70;83.00;;;;;;5037545;28;20100;-78
2022/03/15 06:42:38;;;;;;;10.95;5.68;;;6.80;82.60;;;;;;5035941;28;20029;-79
2022/03/15 06:45:06;;;;;;;12.90;6.43;;;6.90;82.40;;;;;;5037601;28;20187;-77
2022/03/15 06:47:32;;;;;;;8.63;6.38;;;6.90;82.20;;;;;;5038690;28;20354;-78
2022/03/15 06:49:58;;;;;;;8.40;5.40;;;7.00;82.00;;;;;;5041672;28;20026;-79
2022/03/15 06:52:24;;;;;;;8.77;5.75;;;7.10;81.50;;;;;;5039535;28;20056;-77
2022/03/15 06:54:49;;;;;;;10.75;5.53;;;7.20;81.20;;;;;;5039779;28;20057;-78
2022/03/15 06:57:15;;;;;;;11.90;5.97;;;7.20;81.20;;;;;;5043713;28;20025;-78
2022/03/15 06:59:41;;;;;;;11.93;5.93;;;7.30;80.40;;;;;;5043477;28;20017;-77
2022/03/15 07:02:07;;;;;;;9.10;5.82;;;7.40;80.40;;;;;;5043958;28;20017;-78
2022/03/15 07:04:33;;;;;;;12.48;6.57;;;7.60;79.90;;;;;;5042405;28;20032;-78
2022/03/15 07:06:59;;;;;;;11.45;6.72;;;7.70;79.00;;;;;;5042886;28;20029;-77
2022/03/15 07:09:24;;;;;;;9.93;5.95;;;7.80;78.70;;;;;;5041851;28;20026;-79
2022/03/15 07:11:50;;;;;;;11.75;6.90;;;7.80;78.20;;;;;;5042855;28;20029;-77
2022/03/15 07:14:16;;;;;;;8.30;6.07;;;7.80;77.70;;;;;;5043504;28;20060;-78
2022/03/15 07:16:42;;;;;;;7.70;5.78;;;7.90;77.80;;;;;;5053713;28;20032;-78
2022/03/15 07:19:08;;;;;;;6.65;5.10;;;8.10;78.00;;;;;;5055643;28;20022;-78
2022/03/15 07:21:33;;;;;;;7.30;4.80;;;8.40;77.10;;;;;;5055695;28;20037;-79
2022/03/15 07:23:59;;;;;;;7.57;5.63;;;8.70;76.10;;;;;;5057265;28;20018;-80
2022/03/15 07:26:25;;;;;;;11.43;6.18;;;8.90;74.80;;;;;;5045722;28;20089;-79
2022/03/15 07:28:51;;;;;;;9.68;5.95;;;9.10;73.50;;;;;;5039713;28;20108;-77
2022/03/15 07:31:17;;;;;;;13.15;5.82;;;9.20;72.70;;;;;;5042057;28;20072;-79
2022/03/15 07:33:42;;;;;;;12.88;6.78;;;9.20;71.40;;;;;;5042602;28;20514;-78
2022/03/15 07:36:08;;;;;;;9.27;6.20;;;9.20;70.60;;;;;;5043018;28;20049;-78
2022/03/15 07:38:34;;;;;;;15.00;6.50;;;9.10;71.00;;;;;;5043222;28;20040;-79
2022/03/15 07:41:01;;;;;;;9.35;5.43;;;9.10;71.00;;;;;;5041761;28;20040;-79
2022/03/15 07:43:28;;;;;;;10.07;4.88;;;9.20;71.00;;;;;;5040553;28;20132;-79
2022/03/15 07:45:54;;;;;;;7.72;5.28;;;9.10;70.70;;;;;;5039957;28;20029;-77
2022/03/15 07:48:20;;;;;;;7.60;4.43;;;9.10;70.90;;;;;;5019816;28;20060;-77
2022/03/15 07:50:46;;;;;;;7.43;5.00;;;9.10;71.10;;;;;;5016112;28;20038;-77
2022/03/15 07:53:12;;;;;;;6.85;4.38;;;9.10;71.30;;;;;;5017896;28;20025;-77
2022/03/15 07:55:38;;;;;;;5.70;4.07;;;9.20;71.00;;;;;;5033386;28;20029;-78
2022/03/15 07:58:04;;;;;;;8.00;3.80;;;9.30;70.80;;;;;;5047970;28;20030;-79
2022/03/15 08:00:31;;;;;;;11.95;3.95;;;9.40;70.50;;;;;;5053913;28;20060;-78
2022/03/15 08:02:56;;;;;;;5.07;3.70;;;9.50;69.60;;;;;;5038839;28;20029;-77
2022/03/15 08:05:22;;;;;;;5.60;4.20;;;9.60;69.30;;;;;;5041080;28;20028;-78
2022/03/15 08:07:48;;;;;;;5.35;4.35;;;9.70;68.70;;;;;;5044461;28;20044;-77
2022/03/15 08:10:14;;;;;;;9.93;4.78;;;9.70;68.20;;;;;;5043136;28;20021;-77
2022/03/15 08:12:40;;;;;;;6.07;4.07;;;9.80;67.60;;;;;;5043152;28;20425;-77
2022/03/15 08:15:08;;;;;;;6.32;4.68;;;9.80;67.50;;;;;;5041601;28;20025;-77
2022/03/15 08:17:35;;;;;;;11.60;4.93;;;9.90;67.10;;;;;;5039429;28;20029;-77
2022/03/15 08:20:00;;;;;;;8.07;4.60;;;9.90;66.60;;;;;;5041735;28;20017;-77
2022/03/15 08:22:30;;;;;;;5.03;3.85;;;9.90;66.30;;;;;;5040811;28;20033;-77
2022/03/15 08:24:56;;;;;;;6.10;3.83;;;9.90;66.60;;;;;;5041998;28;20036;-77
2022/03/15 08:27:22;;;;;;;5.03;3.28;;;9.90;66.60;;;;;;5040134;28;20033;-78
2022/03/15 08:29:48;;;;;;;4.82;3.53;;;9.90;66.60;;;;;;5039089;28;20040;-78
2022/03/15 08:32:14;;;;;;;5.00;2.75;;;10.00;66.60;;;;;;5038124;28;20022;-79
2022/03/15 08:34:39;;;;;;;5.63;3.90;;;10.00;66.60;;;;;;5040012;28;20021;-79
2022/03/15 08:37:06;;;;;;;6.05;4.07;;;10.10;66.20;;;;;;5040278;28;20021;-79
2022/03/15 08:39:32;;;;;;;8.90;4.68;;;10.20;65.60;;;;;;5037728;28;20021;-76
2022/03/15 08:41:57;;;;;;;5.25;3.50;;;10.20;64.70;;;;;;5036734;28;20116;-77
2022/03/15 08:44:23;;;;;;;9.10;4.35;;;10.30;64.80;;;;;;5038672;28;20033;-78
2022/03/15 08:46:52;;;;;;;3.85;2.97;;;10.30;64.60;;;;;;5036569;28;20025;-78
2022/03/15 08:49:19;;;;;;;5.97;4.03;;;10.40;64.60;;;;;;5037462;28;20195;-78
2022/03/15 08:51:46;;;;;;;8.80;4.47;;;10.50;63.90;;;;;;5038854;28;20108;-78
2022/03/15 08:54:12;;;;;;;9.13;4.15;;;10.60;63.10;;;;;;5035381;28;20334;-77
2022/03/15 08:56:40;;;;;;;5.80;4.10;;;10.60;63.10;;;;;;5036785;28;20030;-78
2022/03/15 08:59:07;;;;;;;6.82;5.03;;;10.70;62.60;;;;;;5036092;28;20048;-77
2022/03/15 09:01:33;;;;;;;6.43;3.92;;;10.70;62.10;;;;;;5036873;28;20055;-77
2022/03/15 09:03:59;;;;;;;6.47;4.13;;;10.70;62.20;;;;;;5039133;28;20029;-78
2022/03/15 09:06:24;;;;;;;10.50;4.78;;;10.80;62.00;;;;;;5038198;28;20029;-78
2022/03/15 09:08:50;;;;;;;8.70;4.43;;;10.90;61.70;;;;;;5039280;28;20040;-78
2022/03/15 09:11:16;;;;;;;5.95;3.78;;;11.00;61.40;;;;;;5038206;28;20025;-80
2022/03/15 09:13:42;;;;;;;6.13;4.10;;;11.10;61.60;;;;;;5038379;28;20029;-78
2022/03/15 09:16:08;;;;;;;7.18;3.85;;;11.30;60.90;;;;;;5038273;28;20077;-78
2022/03/15 09:18:33;;;;;;;7.55;4.43;;;11.50;60.00;;;;;;5038910;28;20025;-78
2022/03/15 09:20:59;;;;;;;8.35;4.15;;;11.60;59.30;;;;;;5038673;28;20029;-77
2022/03/15 09:23:25;;;;;;;9.35;3.85;;;11.70;59.30;;;;;;5038965;28;20084;-78
2022/03/15 09:25:50;;;;;;;10.07;4.22;;;11.70;58.90;;;;;;5045663;28;20025;-79
2022/03/15 09:28:17;;;;;;;5.88;3.75;;;11.80;59.00;;;;;;5045767;28;20033;-78
2022/03/15 09:30:46;;;;;;;6.88;4.68;;;11.80;58.30;;;;;;5039672;28;20061;-77
2022/03/15 09:33:12;;;;;;;6.40;3.92;;;11.80;58.60;;;;;;5036410;28;20371;-77
2022/03/15 09:35:40;;;;;;;4.40;3.33;;;11.80;59.50;;;;;;5037100;28;20051;-78
2022/03/15 09:38:06;;;;;;;4.57;3.40;;;11.80;59.40;;;;;;5041305;28;20090;-78
2022/03/15 09:40:33;;;;;;;6.25;3.70;;;12.00;59.30;;;;;;5042882;28;20021;-78
2022/03/15 09:43:03;;;;;;;7.40;4.25;;;12.30;58.50;;;;;;5049628;28;20029;-77
2022/03/15 09:45:34;;;;;;;6.35;3.60;;;12.50;57.20;;;;;;5047208;28;20021;-77
2022/03/15 09:48:03;;;;;;;6.68;3.95;;;12.70;57.30;;;;;;5042018;28;20089;-77
2022/03/15 09:50:29;;;;;;;5.75;3.40;;;12.90;56.90;;;;;;5040757;28;20022;-78
2022/03/15 09:52:58;;;;;;;4.97;3.20;;;13.20;56.70;;;;;;5044174;28;20488;-78
2022/03/15 09:55:25;;;;;;;7.93;3.85;;;13.80;55.80;;;;;;5038055;28;20037;-78
2022/03/15 09:57:51;;;;;;;3.85;2.85;;;14.20;54.20;;;;;;5037732;28;20026;-78
2022/03/15 10:00:18;;;;;;;4.97;4.00;;;14.40;53.90;;;;;;5041846;28;20382;-78
2022/03/15 10:02:45;;;;;;;6.68;3.47;;;14.50;53.40;;;;;;5041177;28;20045;-79
2022/03/15 10:05:11;;;;;;;6.00;3.45;;;14.40;53.00;;;;;;5041769;28;20106;-78
2022/03/15 10:07:38;;;;;;;7.25;4.18;;;14.20;53.40;;;;;;5040226;28;20141;-78
2022/03/15 10:10:11;;;;;;;8.23;4.13;;;13.80;53.80;;;;;;5040488;28;20478;-78
2022/03/15 10:12:37;;;;;;;4.50;3.20;;;13.60;54.40;;;;;;5043552;28;20014;-78
2022/03/15 10:15:12;;;;;;;7.55;3.60;;;13.40;55.40;;;;;;5041832;28;20029;-76
2022/03/15 10:17:49;;;;;;;6.30;3.92;;;13.30;55.80;;;;;;5049623;28;20034;-77
2022/03/15 10:20:19;;;;;;;10.40;4.28;;;13.30;56.10;;;;;;5045981;28;20021;-80
2022/03/15 10:22:54;;;;;;;5.55;3.72;;;13.50;55.90;;;;;;5044108;28;20036;-79
2022/03/15 10:25:24;;;;;;;9.38;4.65;;;13.70;54.90;;;;;;5047807;28;20026;-78
2022/03/15 10:27:52;;;;;;;7.00;3.90;;;13.70;54.90;;;;;;5047491;28;20524;-79
2022/03/15 10:30:19;;;;;;;4.85;3.35;;;13.70;55.00;;;;;;5048357;28;20366;-79
2022/03/15 10:32:46;;;;;;;7.05;4.07;;;13.80;55.40;;;;;;5054070;28;20033;-79
2022/03/15 10:35:12;;;;;;;7.78;3.38;;;13.90;54.80;;;;;;5049097;28;20037;-78
2022/03/15 10:37:41;;;;;;;8.15;3.38;;;13.80;55.20;;;;;;5046960;28;20021;-78
2022/03/15 10:40:07;;;;;;;14.13;5.03;;;13.70;55.60;;;;;;5045484;28;20028;-78
2022/03/15 10:42:40;;;;;;;5.38;3.70;;;13.70;55.50;;;;;;5043782;28;20021;-78
2022/03/15 10:45:15;;;;;;;4.63;3.58;;;13.70;55.50;;;;;;5044965;28;20107;-78
2022/03/15 10:47:53;;;;;;;7.57;3.70;;;13.80;55.30;;;;;;5043596;28;20037;-78
2022/03/15 10:50:19;;;;;;;7.75;4.35;;;13.80;55.50;;;;;;5043757;28;20096;-78
2022/03/15 10:52:46;;;;;;;6.57;3.92;;;13.80;55.80;;;;;;5042230;28;20113;-78
2022/03/15 10:55:20;;;;;;;5.45;3.95;;;13.80;55.80;;;;;;5043936;28;20044;-79
2022/03/15 10:57:51;;;;;;;4.82;3.13;;;13.80;56.00;;;;;;5042737;28;20474;-78
2022/03/15 11:00:20;;;;;;;3.85;2.65;;;14.00;56.40;;;;;;5045700;28;20072;-79
2022/03/15 11:02:47;;;;;;;4.75;3.03;;;14.40;55.70;;;;;;5046518;28;20025;-79
2022/03/15 11:05:23;;;;;;;7.20;4.10;;;14.60;55.00;;;;;;5044685;28;20097;-78
2022/03/15 11:07:49;;;;;;;5.20;3.15;;;14.60;54.50;;;;;;5059145;22;20437;-78
2022/03/15 11:10:15;;;;;;;4.38;3.55;;;14.60;54.70;;;;;;5047314;28;20052;-78
2022/03/15 11:13:07;;;;;;;6.95;3.00;;;14.70;55.20;;;;;;5045070;28;20029;-79
2022/03/15 11:15:34;;;;;;;6.85;3.40;;;14.60;54.80;;;;;;5040491;28;20102;-80
2022/03/15 11:18:04;;;;;;;5.10;3.10;;;14.60;54.20;;;;;;5039456;28;20033;-83
2022/03/15 11:20:34;;;;;;;3.38;2.78;;;14.40;54.50;;;;;;5019471;28;20026;-80
2022/03/15 11:23:01;;;;;;;2.47;2.28;;;14.30;55.20;;;;;;5018820;28;20040;-81
2022/03/15 11:25:40;;;;;;;3.28;2.40;;;14.30;55.20;;;;;;5017359;28;20025;-78
2022/03/15 11:28:23;;;;;;;4.60;3.30;;;14.20;55.40;;;;;;5017334;28;20045;-79
2022/03/15 11:30:51;;;;;;;3.38;2.65;;;14.20;55.30;;;;;;5030622;28;20156;-78
2022/03/15 11:33:17;;;;;;;5.20;3.40;;;14.20;55.90;;;;;;5034936;28;20344;-80
2022/03/15 11:35:43;;;;;;;7.30;3.50;;;14.50;55.20;;;;;;5036270;28;20017;-79
2022/03/15 11:38:13;;;;;;;3.22;2.85;;;14.50;55.20;;;;;;5037379;28;20117;-79
2022/03/15 11:40:40;;;;;;;4.20;2.97;;;14.50;55.50;;;;;;5037322;28;20049;-79
2022/03/15 11:43:21;;;;;;;3.53;2.35;;;14.40;55.70;;;;;;5036526;28;20018;-79
2022/03/15 11:46:00;;;;;;;5.53;2.88;;;14.30;56.10;;;;;;5036375;28;20029;-79
2022/03/15 11:48:44;;;;;;;4.63;2.90;;;14.20;56.20;;;;;;5043157;28;20330;-79
2022/03/15 11:51:40;;;;;;;7.95;3.53;;;14.20;56.70;;;;;;5037276;28;20049;-80
2022/03/15 11:54:20;;;;;;;5.85;2.75;;;14.30;56.50;;;;;;5035694;28;20315;-80
2022/03/15 11:57:30;;;;;;;5.70;2.92;;;14.30;56.60;;;;;;5037554;28;20677;-79
2022/03/15 11:59:56;;;;;;;4.45;2.35;;;14.20;56.90;;;;;;4938639;29;20046;-77
2022/03/15 12:02:32;;;;;;;5.70;3.08;;;14.10;57.20;;;;;;5020489;28;20114;-77
2022/03/15 12:04:59;;;;;;;5.70;4.03;;;14.20;57.00;;;;;;5035468;28;20655;-79
2022/03/15 12:07:44;;;;;;;4.97;3.63;;;14.20;56.90;;;;;;5034584;28;20041;-80
2022/03/15 12:10:19;;;;;;;4.65;3.30;;;14.20;56.70;;;;;;5044445;28;20026;-80
2022/03/15 12:12:47;;;;;;;3.67;3.10;;;14.20;56.60;;;;;;5037659;28;20097;-78
2022/03/15 12:15:17;;;;;;;3.08;2.30;;;14.30;56.70;;;;;;5037680;28;20018;-80
2022/03/15 12:17:43;;;;;;;5.18;2.65;;;14.30;56.70;;;;;;5037793;28;20022;-79
2022/03/15 12:20:14;;;;;;;3.05;2.47;;;14.40;56.90;;;;;;5022279;28;20030;-81
2022/03/15 12:22:43;;;;;;;2.13;1.88;;;14.40;56.80;;;;;;5019074;28;20029;-80
2022/03/15 12:25:17;;;;;;;2.47;1.92;;;14.50;57.00;;;;;;5018577;28;20088;-77
2022/03/15 12:27:49;;;;;;;2.92;2.03;;;14.60;57.30;;;;;;5021168;28;20466;-85
2022/03/15 12:30:29;;;;;;;2.40;1.58;;;14.60;57.40;;;;;;5025855;28;20044;-83
2022/03/15 12:32:56;;;;;;;2.05;1.60;;;14.60;57.70;;;;;;5027033;28;20167;-85
2022/03/15 12:35:25;;;;;;;2.80;1.45;;;14.50;57.70;;;;;;5020239;28;20110;-81
2022/03/15 12:37:51;;;;;;;1.83;1.60;;;14.40;57.90;;;;;;5023703;28;20026;-80
2022/03/15 12:40:17;;;;;;;2.15;1.73;;;14.20;58.00;;;;;;5045338;28;20101;-81
2022/03/15 12:42:57;;;;;;;2.03;1.80;;;14.20;58.00;;;;;;5047256;28;20029;-82
2022/03/15 12:45:23;;;;;;;4.90;1.50;;;14.20;58.10;;;;;;5039371;28;20021;-82
2022/03/15 12:47:49;;;;;;;1.95;1.77;;;14.10;58.30;;;;;;5041196;28;20031;-81
2022/03/15 12:50:15;;;;;;;1.70;1.60;;;13.90;58.70;;;;;;5041282;28;20033;-81
2022/03/15 12:52:50;;;;;;;1.92;1.27;;;13.80;59.10;;;;;;5042190;28;20021;-81
2022/03/15 12:55:26;;;;;;;1.40;1.27;;;13.70;59.80;;;;;;5040512;28;20040;-81